Time;durP1;ratioP1;P1;durP2;ratioP2;P2;SDS_P1;SDS_P2;PMS_P1;PMS_P2;Temp;Humidity;BMP_temperature;BMP_pressure;BME280_temperature;BME280_humidity;BME280_pressure;Samples;Min_cycle;Max_cycle;Signal;HPM_P1;HPM_P2
2022/01/08 00:01:55;;;;;;;61.95;40.17;;;4.30;99.90;;;;;;4920354;29;20084;-46
2022/01/08 00:04:21;;;;;;;61.85;37.50;;;4.20;99.90;;;;;;4920167;29;20396;-46
2022/01/08 00:06:46;;;;;;;60.35;36.45;;;4.30;99.90;;;;;;4920056;29;20040;-47
2022/01/08 00:09:12;;;;;;;56.72;37.22;;;4.40;99.90;;;;;;4918522;29;20071;-47
2022/01/08 00:11:41;;;;;;;63.42;38.55;;;4.30;99.90;;;;;;4871381;29;20472;-46
2022/01/08 00:14:09;;;;;;;64.10;35.55;;;4.40;99.90;;;;;;4919902;29;20457;-47
2022/01/08 00:16:37;;;;;;;60.20;36.92;;;4.50;99.90;;;;;;4920260;29;20087;-47
2022/01/08 00:19:04;;;;;;;60.75;37.15;;;4.70;99.90;;;;;;4920027;29;20036;-46
2022/01/08 00:21:30;;;;;;;66.32;39.28;;;4.80;99.90;;;;;;4919880;29;20377;-46
2022/01/08 00:23:55;;;;;;;59.83;37.45;;;4.90;99.90;;;;;;4919741;29;20040;-46
2022/01/08 00:26:21;;;;;;;67.35;36.75;;;4.90;99.90;;;;;;4919845;29;20127;-47
2022/01/08 00:28:47;;;;;;;54.83;33.92;;;5.00;99.90;;;;;;4919734;29;20160;-47
2022/01/08 00:31:13;;;;;;;72.00;44.55;;;5.00;99.90;;;;;;4919417;29;20055;-46
2022/01/08 00:33:39;;;;;;;66.53;41.20;;;5.00;99.90;;;;;;4919923;29;20097;-47
2022/01/08 00:36:06;;;;;;;61.55;39.13;;;5.10;99.90;;;;;;4886424;29;20386;-47
2022/01/08 00:38:32;;;;;;;56.45;34.15;;;5.20;99.90;;;;;;4919658;29;20031;-47
2022/01/08 00:40:58;;;;;;;84.22;48.08;;;5.20;99.90;;;;;;4919465;29;20455;-47
2022/01/08 00:43:23;;;;;;;86.18;48.53;;;5.20;99.90;;;;;;4870744;29;20048;-46
2022/01/08 00:45:49;;;;;;;68.85;39.33;;;5.30;99.90;;;;;;4918847;29;20060;-47
2022/01/08 00:48:15;;;;;;;60.92;39.03;;;5.40;99.90;;;;;;4901996;29;20040;-46
2022/01/08 00:50:41;;;;;;;70.82;40.10;;;5.40;99.90;;;;;;4901946;29;20079;-47
2022/01/08 00:53:06;;;;;;;60.47;38.67;;;5.50;99.90;;;;;;4918965;29;20076;-47
2022/01/08 00:55:32;;;;;;;58.38;38.75;;;5.50;99.90;;;;;;4918602;29;20062;-46
2022/01/08 00:57:58;;;;;;;60.33;38.20;;;5.50;99.90;;;;;;4885994;29;20099;-47
2022/01/08 01:00:24;;;;;;;61.20;38.05;;;5.50;99.90;;;;;;4919295;29;20440;-46
2022/01/08 01:02:50;;;;;;;51.50;33.67;;;5.50;99.90;;;;;;4919389;29;20028;-46
2022/01/08 01:05:16;;;;;;;102.57;54.22;;;5.40;99.90;;;;;;4901031;29;20048;-47
2022/01/08 01:07:42;;;;;;;93.72;52.95;;;5.30;99.90;;;;;;4919020;29;20056;-47
2022/01/08 01:10:09;;;;;;;66.03;41.72;;;5.30;99.90;;;;;;4918843;29;20048;-47
2022/01/08 01:12:35;;;;;;;60.63;39.63;;;5.30;99.90;;;;;;4855290;29;20063;-47
2022/01/08 01:15:01;;;;;;;71.15;43.95;;;5.20;99.90;;;;;;4901167;29;20516;-46
2022/01/08 01:17:27;;;;;;;61.35;39.75;;;5.20;99.90;;;;;;4901465;29;20044;-46
2022/01/08 01:19:53;;;;;;;64.45;38.97;;;5.30;99.90;;;;;;4918731;29;20111;-47
2022/01/08 01:22:22;;;;;;;62.75;39.78;;;5.20;99.90;;;;;;4916919;29;20032;-46
2022/01/08 01:24:50;;;;;;;59.80;40.97;;;5.30;99.90;;;;;;4918962;29;20099;-46
2022/01/08 01:49:03;;;;;;;71.68;42.45;;;5.20;99.90;;;;;;4878974;29;20134;-46
2022/01/08 01:51:29;;;;;;;65.60;41.55;;;5.20;99.90;;;;;;4878634;29;20080;-46
2022/01/08 01:53:55;;;;;;;65.97;41.35;;;5.30;99.90;;;;;;4863109;29;20040;-46
2022/01/08 01:56:21;;;;;;;62.53;41.85;;;5.10;99.90;;;;;;4878792;29;20137;-47
2022/01/08 01:58:48;;;;;;;63.63;42.67;;;5.10;99.90;;;;;;4878596;29;20427;-46
2022/01/08 02:01:14;;;;;;;64.18;42.20;;;5.10;99.90;;;;;;4878156;29;20057;-47
2022/01/08 02:03:40;;;;;;;54.88;37.80;;;5.10;99.90;;;;;;4879890;29;20040;-47
2022/01/08 02:06:07;;;;;;;60.92;40.33;;;5.00;99.90;;;;;;4878797;29;20026;-46
2022/01/08 02:08:34;;;;;;;55.17;38.25;;;5.10;99.90;;;;;;4870892;29;20129;-47
2022/01/08 02:11:00;;;;;;;56.05;38.85;;;5.10;99.90;;;;;;4881337;29;20061;-46
2022/01/08 02:13:27;;;;;;;58.35;37.83;;;5.10;99.90;;;;;;4881748;29;20442;-47
2022/01/08 02:15:55;;;;;;;56.25;36.75;;;5.10;99.90;;;;;;4898977;29;20033;-46
2022/01/08 02:18:22;;;;;;;68.15;41.50;;;5.00;99.90;;;;;;4880923;29;20048;-47
2022/01/08 02:20:48;;;;;;;66.43;41.78;;;5.00;99.90;;;;;;4898756;29;20120;-46
2022/01/08 02:23:14;;;;;;;65.15;42.03;;;5.00;99.90;;;;;;4906896;29;20123;-46
2022/01/08 02:25:39;;;;;;;63.85;43.17;;;5.00;99.90;;;;;;4853366;29;20136;-46
2022/01/08 02:28:06;;;;;;;65.22;42.97;;;5.10;99.90;;;;;;4917713;29;20481;-47
2022/01/08 02:30:32;;;;;;;77.43;45.97;;;5.10;99.90;;;;;;4917427;29;20115;-46
2022/01/08 02:32:58;;;;;;;66.85;43.08;;;5.30;99.90;;;;;;4917470;29;20488;-46
2022/01/08 02:35:25;;;;;;;63.33;41.20;;;5.40;99.90;;;;;;4917531;29;20059;-46
2022/01/08 02:37:51;;;;;;;63.75;41.30;;;5.40;99.90;;;;;;4917605;29;20036;-47
2022/01/08 02:40:19;;;;;;;59.67;40.42;;;5.50;99.90;;;;;;4917681;29;20036;-47
2022/01/08 02:42:51;;;;;;;61.05;41.30;;;5.40;99.90;;;;;;4917256;29;20047;-47
2022/01/08 02:45:18;;;;;;;62.35;41.45;;;;;;;;;;4917207;29;20040;-47
2022/01/08 02:47:45;;;;;;;63.78;43.40;;;5.50;99.90;;;;;;4917280;29;20036;-46
2022/01/08 02:50:11;;;;;;;62.03;42.85;;;5.50;99.90;;;;;;4917305;29;20028;-46
2022/01/08 02:52:41;;;;;;;64.15;43.15;;;5.40;99.90;;;;;;4917545;29;20369;-46
2022/01/08 02:55:07;;;;;;;70.88;44.05;;;5.40;99.90;;;;;;4917302;29;20107;-47
2022/01/08 02:57:33;;;;;;;71.35;43.55;;;5.50;99.90;;;;;;4868469;29;20040;-46
2022/01/08 03:00:00;;;;;;;61.75;41.45;;;5.50;99.90;;;;;;4916988;29;20032;-46
2022/01/08 03:02:26;;;;;;;57.97;39.55;;;5.50;99.90;;;;;;4917136;29;20031;-46
2022/01/08 03:04:55;;;;;;;63.30;40.25;;;5.50;99.90;;;;;;4917211;29;20036;-47
2022/01/08 03:07:20;;;;;;;55.10;36.15;;;5.50;99.90;;;;;;4917087;29;20050;-46
2022/01/08 03:09:56;;;;;;;60.20;38.25;;;5.50;99.90;;;;;;4916473;29;20505;-46
2022/01/08 03:12:22;;;;;;;58.78;39.15;;;5.40;99.90;;;;;;4917071;29;20044;-46
2022/01/08 03:14:47;;;;;;;60.95;38.38;;;5.20;99.90;;;;;;4917302;29;20036;-46
2022/01/08 03:17:13;;;;;;;57.67;40.10;;;5.20;99.90;;;;;;4917310;29;20480;-46
2022/01/08 03:19:39;;;;;;;58.00;39.08;;;5.20;99.90;;;;;;4916989;29;20103;-47
2022/01/08 03:22:05;;;;;;;53.53;34.88;;;5.30;99.90;;;;;;4917164;29;20024;-47
2022/01/08 03:24:31;;;;;;;54.05;37.75;;;5.10;99.90;;;;;;4916774;29;20048;-47
2022/01/08 03:26:57;;;;;;;54.90;38.03;;;5.10;99.90;;;;;;4916811;29;20172;-46
2022/01/08 03:29:24;;;;;;;61.47;39.53;;;5.10;99.90;;;;;;4919052;29;20055;-46
2022/01/08 03:31:50;;;;;;;57.97;39.03;;;5.00;99.90;;;;;;4920602;29;20067;-47
2022/01/08 03:34:16;;;;;;;66.72;42.45;;;5.10;99.90;;;;;;4903218;29;20063;-46
2022/01/08 03:36:41;;;;;;;56.75;39.38;;;5.20;99.90;;;;;;4920862;29;20060;-46
2022/01/08 03:39:07;;;;;;;62.33;40.45;;;5.20;99.90;;;;;;4887869;29;20039;-46
2022/01/08 03:41:33;;;;;;;60.50;38.22;;;5.20;99.90;;;;;;4871595;29;20036;-46
2022/01/08 03:43:59;;;;;;;58.90;38.28;;;5.10;99.90;;;;;;4920437;29;20028;-48
2022/01/08 03:46:28;;;;;;;57.03;39.33;;;5.10;99.90;;;;;;4920027;29;20380;-47
2022/01/08 03:51:29;;;;;;;55.20;37.75;;;5.00;99.90;;;;;;4870749;29;20119;-46
2022/01/08 03:53:55;;;;;;;55.03;37.38;;;5.00;99.90;;;;;;4879800;29;20029;-47
2022/01/08 03:56:21;;;;;;;49.33;35.08;;;5.20;99.90;;;;;;4851734;29;20085;-47
2022/01/08 03:58:47;;;;;;;55.78;37.38;;;5.20;99.90;;;;;;4857255;29;20450;-47
2022/01/08 04:01:12;;;;;;;52.47;37.13;;;5.20;99.90;;;;;;4853351;29;20046;-47
2022/01/08 04:03:38;;;;;;;70.00;42.63;;;5.20;99.90;;;;;;4853040;29;20068;-47
2022/01/08 04:06:04;;;;;;;64.95;41.33;;;5.20;99.90;;;;;;4851824;29;20049;-47
2022/01/08 04:08:30;;;;;;;57.63;38.00;;;5.30;99.90;;;;;;4871872;29;20181;-47
2022/01/08 04:10:55;;;;;;;59.17;38.10;;;5.30;99.90;;;;;;4879672;29;20135;-47
2022/01/08 04:13:25;;;;;;;51.25;36.42;;;5.30;99.90;;;;;;4879339;29;20478;-46
2022/01/08 04:15:56;;;;;;;50.55;35.53;;;5.40;99.90;;;;;;4879776;29;20033;-47
2022/01/08 04:18:22;;;;;;;62.08;36.58;;;5.40;99.90;;;;;;4879519;29;20033;-49
2022/01/08 04:21:02;;;;;;;67.38;43.15;;;5.40;99.90;;;;;;4872983;29;20037;-48
2022/01/08 04:23:28;;;;;;;56.97;37.50;;;5.30;99.90;;;;;;4917736;29;20515;-46
2022/01/08 04:25:54;;;;;;;46.10;34.05;;;5.20;99.90;;;;;;4858422;29;20144;-58
2022/01/08 04:28:21;;;;;;;45.83;33.95;;;5.20;99.90;;;;;;4922080;29;20088;-56
2022/01/08 04:30:47;;;;;;;51.67;34.35;;;5.30;99.90;;;;;;4920733;29;20028;-47
2022/01/08 04:33:13;;;;;;;58.08;36.17;;;5.00;99.90;;;;;;4920125;29;20027;-47
2022/01/08 04:35:39;;;;;;;45.72;32.78;;;5.00;99.90;;;;;;4887122;29;20426;-46
2022/01/08 04:38:05;;;;;;;42.50;31.40;;;5.00;99.90;;;;;;4920438;29;20354;-47
2022/01/08 04:40:32;;;;;;;49.90;30.65;;;4.70;99.90;;;;;;4885945;29;20473;-47
2022/01/08 04:42:59;;;;;;;48.65;32.50;;;4.50;99.90;;;;;;4921648;29;20481;-47
2022/01/08 04:45:29;;;;;;;50.38;32.67;;;4.30;99.90;;;;;;4919947;29;20036;-47
2022/01/08 04:47:56;;;;;;;49.33;32.65;;;4.20;99.90;;;;;;4889362;29;20404;-49
2022/01/08 04:50:22;;;;;;;47.65;33.28;;;4.10;99.90;;;;;;4922156;29;20127;-52
2022/01/08 04:52:47;;;;;;;51.75;34.45;;;4.50;99.90;;;;;;4887327;29;20460;-47
2022/01/08 04:55:13;;;;;;;43.10;28.65;;;4.70;99.90;;;;;;4919567;29;20103;-48
2022/01/08 04:57:39;;;;;;;45.53;29.70;;;4.80;99.90;;;;;;4918925;29;20384;-47
2022/01/08 05:00:05;;;;;;;40.15;26.52;;;5.00;99.90;;;;;;4918941;29;20468;-47
2022/01/08 05:02:31;;;;;;;43.58;28.83;;;5.00;99.90;;;;;;4854995;29;20032;-47
2022/01/08 05:04:57;;;;;;;45.22;27.58;;;5.10;99.90;;;;;;4919102;29;20043;-47
2022/01/08 05:07:22;;;;;;;40.30;27.00;;;5.00;99.90;;;;;;4920366;29;20036;-47
2022/01/08 05:09:48;;;;;;;38.40;25.67;;;5.20;99.90;;;;;;4918965;29;20497;-47
2022/01/08 05:12:14;;;;;;;44.10;28.10;;;5.10;99.90;;;;;;4919900;29;20039;-47
2022/01/08 05:14:42;;;;;;;38.08;26.25;;;5.10;99.90;;;;;;4919296;29;20043;-47
2022/01/08 05:17:08;;;;;;;40.45;26.90;;;5.10;99.90;;;;;;4918980;29;20051;-46
2022/01/08 05:19:44;;;;;;;36.20;24.55;;;5.10;99.90;;;;;;4902399;29;20024;-47
2022/01/08 05:22:18;;;;;;;39.00;23.70;;;5.10;99.90;;;;;;4874162;29;20486;-47
2022/01/08 05:24:44;;;;;;;38.22;27.42;;;5.10;99.90;;;;;;4899902;29;20044;-47
2022/01/08 05:27:15;;;;;;;175.57;137.93;;;5.10;99.90;;;;;;4867273;29;20101;-47
2022/01/08 05:29:41;;;;;;;67.88;48.08;;;5.20;99.90;;;;;;4900057;29;20048;-47
2022/01/08 05:32:08;;;;;;;40.13;27.40;;;5.40;99.90;;;;;;4914229;29;20135;-48
2022/01/08 05:34:34;;;;;;;42.50;28.77;;;5.20;99.90;;;;;;4918366;29;20051;-47
2022/01/08 05:37:00;;;;;;;42.20;29.90;;;5.30;99.90;;;;;;4918702;29;20111;-47
2022/01/08 05:39:25;;;;;;;42.45;29.52;;;5.30;99.90;;;;;;4918168;29;20040;-47
2022/01/08 05:41:51;;;;;;;42.58;29.13;;;5.40;99.90;;;;;;4861065;29;20050;-47
2022/01/08 05:44:17;;;;;;;40.22;29.13;;;5.20;99.90;;;;;;4907937;29;20040;-47
2022/01/08 05:46:45;;;;;;;40.05;29.80;;;5.30;99.90;;;;;;4869835;29;20051;-47
2022/01/08 05:49:12;;;;;;;41.20;28.80;;;5.10;99.90;;;;;;4918132;29;20127;-47
2022/01/08 05:51:38;;;;;;;44.30;29.65;;;5.10;99.90;;;;;;4867195;29;20111;-47
2022/01/08 05:54:04;;;;;;;41.83;30.25;;;5.30;99.90;;;;;;4900770;29;20426;-47
2022/01/08 05:56:30;;;;;;;41.95;30.40;;;5.20;99.90;;;;;;4918046;29;20171;-47
2022/01/08 05:58:55;;;;;;;40.35;30.30;;;5.20;99.90;;;;;;4868899;29;20090;-47
2022/01/08 06:01:21;;;;;;;39.55;30.58;;;5.20;99.90;;;;;;4913615;29;20066;-48
2022/01/08 06:03:47;;;;;;;42.20;31.42;;;5.10;99.90;;;;;;4917375;29;20043;-47
2022/01/08 06:06:12;;;;;;;39.15;29.95;;;5.10;99.90;;;;;;4869499;29;20051;-47
2022/01/08 06:08:38;;;;;;;43.40;30.17;;;5.20;99.90;;;;;;4866477;29;20051;-46
2022/01/08 06:11:04;;;;;;;40.33;30.27;;;5.20;99.90;;;;;;4915103;29;20145;-47
2022/01/08 06:13:30;;;;;;;37.65;28.85;;;5.20;99.90;;;;;;4916464;29;20032;-47
2022/01/08 06:15:55;;;;;;;43.03;30.10;;;5.20;99.90;;;;;;4917751;29;20381;-47
2022/01/08 06:18:21;;;;;;;41.35;29.88;;;5.00;99.90;;;;;;4916655;29;20032;-47
2022/01/08 06:20:47;;;;;;;41.15;30.60;;;5.00;99.90;;;;;;4915350;29;20034;-47
2022/01/08 06:23:12;;;;;;;42.10;29.67;;;4.90;99.90;;;;;;4866519;29;20055;-47
2022/01/08 06:25:43;;;;;;;42.90;31.00;;;4.90;99.90;;;;;;4917496;29;20374;-47
2022/01/08 06:28:10;;;;;;;55.55;38.53;;;5.00;99.90;;;;;;4917453;29;20124;-48
2022/01/08 06:30:36;;;;;;;83.93;54.33;;;5.00;99.90;;;;;;4900021;29;20087;-47
2022/01/08 06:33:02;;;;;;;42.63;31.55;;;5.00;99.90;;;;;;4916328;29;20047;-47
2022/01/08 06:35:28;;;;;;;42.20;29.63;;;5.00;99.90;;;;;;4916604;29;20107;-47
2022/01/08 06:37:53;;;;;;;68.80;43.20;;;5.20;99.90;;;;;;4868747;29;20123;-47
2022/01/08 06:40:19;;;;;;;76.03;47.53;;;5.30;99.90;;;;;;4917624;29;20084;-47
2022/01/08 06:42:45;;;;;;;70.47;47.72;;;5.20;99.90;;;;;;4915400;29;20032;-47
2022/01/08 06:45:11;;;;;;;69.45;43.83;;;5.20;99.90;;;;;;4915876;29;20044;-47
2022/01/08 06:47:36;;;;;;;71.22;43.30;;;5.20;99.90;;;;;;4913777;29;20067;-47
2022/01/08 06:50:03;;;;;;;55.85;38.45;;;5.20;99.90;;;;;;4916149;29;20032;-48
2022/01/08 06:52:29;;;;;;;50.15;34.55;;;5.30;99.90;;;;;;4916377;29;20046;-48
2022/01/08 06:54:54;;;;;;;58.45;39.38;;;5.30;99.90;;;;;;4916936;29;20040;-47
2022/01/08 06:57:20;;;;;;;59.85;42.55;;;4.90;99.90;;;;;;4914736;29;20035;-47
2022/01/08 06:59:46;;;;;;;58.60;41.83;;;4.90;99.90;;;;;;4912388;29;20032;-48
2022/01/08 07:02:11;;;;;;;94.03;59.05;;;5.00;99.90;;;;;;4914011;29;20055;-47
2022/01/08 07:04:37;;;;;;;74.40;47.72;;;4.90;99.90;;;;;;4885012;29;20103;-47
2022/01/08 07:07:03;;;;;;;103.75;67.50;;;4.60;99.90;;;;;;4899196;29;20040;-47
2022/01/08 07:09:29;;;;;;;59.58;41.88;;;4.60;99.90;;;;;;4916875;29;20472;-47
2022/01/08 07:11:54;;;;;;;70.30;48.25;;;4.40;99.90;;;;;;4916966;29;20043;-47
2022/01/08 07:14:20;;;;;;;63.92;47.17;;;4.30;99.90;;;;;;4917153;29;20024;-47
2022/01/08 07:16:48;;;;;;;58.45;42.63;;;4.30;99.90;;;;;;4852731;29;20389;-47
2022/01/08 07:19:13;;;;;;;64.38;42.78;;;4.30;99.90;;;;;;4884412;29;20052;-48
2022/01/08 07:21:39;;;;;;;65.00;42.40;;;4.30;99.90;;;;;;4883977;29;20047;-49
2022/01/08 07:24:05;;;;;;;66.00;44.95;;;4.20;99.90;;;;;;4884038;29;20130;-47
2022/01/08 07:26:31;;;;;;;70.07;47.03;;;4.30;99.90;;;;;;4883897;29;20225;-48
2022/01/08 07:28:56;;;;;;;57.88;38.40;;;4.30;99.90;;;;;;4916805;29;20036;-48
2022/01/08 07:31:22;;;;;;;65.25;41.50;;;4.40;99.90;;;;;;4914956;29;20028;-47
2022/01/08 07:33:49;;;;;;;69.30;44.05;;;4.30;99.90;;;;;;4878286;29;20035;-48
2022/01/08 07:36:17;;;;;;;70.07;46.40;;;4.40;99.90;;;;;;4917775;29;20059;-48
2022/01/08 07:38:43;;;;;;;62.58;41.78;;;4.40;99.90;;;;;;4918795;29;20484;-47
2022/01/08 07:41:09;;;;;;;65.40;42.92;;;4.30;99.90;;;;;;4883983;29;20044;-47
2022/01/08 07:43:34;;;;;;;58.00;41.67;;;4.30;99.90;;;;;;4880172;29;20048;-48
2022/01/08 07:46:00;;;;;;;59.65;39.83;;;4.40;99.90;;;;;;4883528;29;20055;-48
2022/01/08 07:48:26;;;;;;;75.82;53.20;;;4.20;99.90;;;;;;4867738;29;20511;-48
2022/01/08 07:50:52;;;;;;;61.72;42.83;;;4.10;99.90;;;;;;4915630;29;20028;-47
2022/01/08 07:53:18;;;;;;;52.10;37.83;;;4.10;99.90;;;;;;4916610;29;20032;-48
2022/01/08 07:55:44;;;;;;;51.20;37.35;;;4.30;99.90;;;;;;4915180;29;21424;-49
2022/01/08 07:58:10;;;;;;;54.42;39.70;;;4.40;99.90;;;;;;4865042;29;20111;-48
2022/01/08 08:00:36;;;;;;;65.97;45.13;;;4.40;99.90;;;;;;4921388;29;20223;-48
2022/01/08 08:03:02;;;;;;;58.45;44.15;;;4.40;99.90;;;;;;4922628;29;20027;-48
2022/01/08 08:05:30;;;;;;;50.15;36.42;;;4.50;99.90;;;;;;4924361;29;20075;-47
2022/01/08 08:07:55;;;;;;;50.20;34.03;;;4.70;99.90;;;;;;4918221;29;20505;-47
2022/01/08 08:10:22;;;;;;;45.78;33.28;;;4.70;99.90;;;;;;4915898;29;20052;-48
2022/01/08 08:12:47;;;;;;;55.25;38.30;;;4.70;99.90;;;;;;4915886;29;20032;-48
2022/01/08 08:15:15;;;;;;;56.15;39.17;;;4.80;99.90;;;;;;4915001;29;20026;-48
2022/01/08 08:17:42;;;;;;;58.20;40.53;;;5.00;99.90;;;;;;4871373;29;20048;-47
2022/01/08 08:20:08;;;;;;;53.00;38.35;;;4.80;99.90;;;;;;4919237;29;20116;-49
2022/01/08 08:22:34;;;;;;;52.22;36.10;;;4.90;99.90;;;;;;4870545;29;20032;-47
2022/01/08 08:25:00;;;;;;;57.63;38.97;;;4.90;99.90;;;;;;4918977;29;20028;-47
2022/01/08 08:27:26;;;;;;;46.72;31.33;;;4.80;99.90;;;;;;4885895;29;20039;-47
2022/01/08 08:29:52;;;;;;;43.72;31.80;;;4.80;99.90;;;;;;4885542;29;20108;-48
2022/01/08 08:32:18;;;;;;;47.47;32.70;;;4.80;99.90;;;;;;4878706;29;20032;-49
2022/01/08 08:34:44;;;;;;;44.83;32.15;;;5.00;99.90;;;;;;4901349;29;20079;-48
2022/01/08 08:37:10;;;;;;;49.70;34.92;;;4.90;99.90;;;;;;4918360;29;20032;-47
2022/01/08 08:39:35;;;;;;;40.28;29.50;;;4.80;99.90;;;;;;4919375;29;20032;-48
2022/01/08 08:42:01;;;;;;;41.03;30.40;;;4.90;99.90;;;;;;4918065;29;20043;-47
2022/01/08 08:44:27;;;;;;;36.58;27.42;;;5.00;99.90;;;;;;4918751;29;20465;-47
2022/01/08 08:46:53;;;;;;;38.80;27.42;;;5.10;99.90;;;;;;4918296;29;20036;-48
2022/01/08 08:49:19;;;;;;;35.60;26.35;;;5.00;99.90;;;;;;4919280;29;20032;-48
2022/01/08 08:51:44;;;;;;;56.50;37.88;;;5.00;99.90;;;;;;4886052;29;20043;-47
2022/01/08 08:54:10;;;;;;;38.35;27.45;;;4.90;99.90;;;;;;4886056;29;20612;-47
2022/01/08 08:56:38;;;;;;;42.50;30.98;;;5.00;99.90;;;;;;4919158;29;20032;-48
2022/01/08 08:59:04;;;;;;;41.25;31.17;;;5.10;99.90;;;;;;4916096;29;20068;-47
2022/01/08 09:01:30;;;;;;;38.55;27.70;;;4.90;99.90;;;;;;4899084;29;20083;-47
2022/01/08 09:03:55;;;;;;;40.85;28.95;;;5.00;99.90;;;;;;4868171;29;20040;-48
2022/01/08 09:06:21;;;;;;;40.05;29.73;;;5.00;99.90;;;;;;4899697;29;20043;-48
2022/01/08 09:08:47;;;;;;;41.00;29.08;;;5.00;99.90;;;;;;4919076;29;20024;-48
2022/01/08 09:11:13;;;;;;;33.95;23.40;;;5.00;99.90;;;;;;4901141;29;20056;-48
2022/01/08 09:13:39;;;;;;;37.58;26.45;;;4.90;99.90;;;;;;4917875;29;20077;-49
2022/01/08 09:16:04;;;;;;;39.90;29.00;;;4.80;99.90;;;;;;4919087;29;20488;-48
2022/01/08 09:18:30;;;;;;;41.80;27.65;;;4.80;99.90;;;;;;4917921;29;20039;-46
2022/01/08 09:20:56;;;;;;;37.03;26.88;;;4.80;99.90;;;;;;4918765;29;20615;-48
2022/01/08 09:23:22;;;;;;;34.65;25.05;;;4.90;99.90;;;;;;4869179;29;20050;-53
2022/01/08 09:25:48;;;;;;;32.20;23.27;;;4.90;99.90;;;;;;4900290;29;20048;-50
2022/01/08 09:28:13;;;;;;;33.47;23.60;;;4.90;99.90;;;;;;4917171;29;20047;-51
2022/01/08 09:30:39;;;;;;;29.02;21.40;;;4.80;99.90;;;;;;4869618;29;20119;-51
2022/01/08 09:33:05;;;;;;;29.05;21.55;;;4.80;99.90;;;;;;4915800;29;20054;-49
2022/01/08 09:35:31;;;;;;;30.30;21.70;;;4.70;99.90;;;;;;4911139;29;20126;-49
2022/01/08 09:37:57;;;;;;;32.10;22.95;;;4.70;99.90;;;;;;4894475;29;20545;-46
2022/01/08 09:40:24;;;;;;;68.78;47.25;;;4.70;99.90;;;;;;4917193;29;20030;-49
2022/01/08 09:42:51;;;;;;;33.20;20.25;;;4.80;99.90;;;;;;4892392;29;20028;-46
2022/01/08 09:45:17;;;;;;;43.40;27.83;;;4.40;99.90;;;;;;4916909;29;20552;-46
2022/01/08 09:47:43;;;;;;;34.55;23.23;;;4.30;99.90;;;;;;4917095;29;20024;-46
2022/01/08 09:50:09;;;;;;;35.83;24.98;;;4.30;99.90;;;;;;4918122;29;20380;-57
2022/01/08 09:52:36;;;;;;;33.10;24.25;;;4.30;99.90;;;;;;4914673;29;20083;-46
2022/01/08 09:55:04;;;;;;;36.60;25.13;;;4.40;99.90;;;;;;4917107;29;20036;-47
2022/01/08 09:57:29;;;;;;;46.95;33.85;;;4.10;99.90;;;;;;4917118;29;20028;-49
2022/01/08 09:59:55;;;;;;;38.88;27.38;;;4.00;99.90;;;;;;4916827;29;20039;-47
2022/01/08 10:02:22;;;;;;;35.30;25.67;;;3.90;99.90;;;;;;4916489;29;20040;-49
2022/01/08 10:04:48;;;;;;;44.33;28.98;;;4.00;99.90;;;;;;4914871;29;20120;-46
2022/01/08 10:07:23;;;;;;;40.53;28.95;;;4.00;99.90;;;;;;4897841;29;20127;-46
2022/01/08 10:10:02;;;;;;;43.03;30.45;;;3.80;99.90;;;;;;4910887;29;20548;-48
2022/01/08 10:12:37;;;;;;;45.10;31.13;;;3.90;99.90;;;;;;4917897;29;20115;-47
2022/01/08 10:17:48;;;;;;;40.13;27.90;;;4.10;99.90;;;;;;4917761;29;20039;-48
2022/01/08 10:20:30;;;;;;;40.70;28.05;;;4.20;99.90;;;;;;4917310;29;20028;-50
2022/01/08 10:23:18;;;;;;;40.17;29.55;;;4.10;99.90;;;;;;4905396;29;20048;-47
2022/01/08 10:26:02;;;;;;;39.55;28.23;;;4.20;99.90;;;;;;4917217;29;20054;-45
2022/01/08 10:28:38;;;;;;;46.47;30.70;;;4.10;99.90;;;;;;4917180;29;20032;-47
2022/01/08 10:31:21;;;;;;;44.15;30.17;;;4.10;99.90;;;;;;4917493;29;20054;-46
2022/01/08 10:34:08;;;;;;;48.33;31.98;;;4.10;99.90;;;;;;4917366;29;20055;-47
2022/01/08 10:36:57;;;;;;;51.72;33.05;;;4.20;99.90;;;;;;4917331;29;20024;-47
2022/01/08 10:39:34;;;;;;;50.83;36.22;;;4.20;99.90;;;;;;4917149;29;20032;-47
2022/01/08 10:42:14;;;;;;;54.03;38.55;;;4.20;99.90;;;;;;4917515;29;20032;-49
2022/01/08 10:44:41;;;;;;;64.75;42.33;;;4.20;99.90;;;;;;4916498;29;20028;-50
2022/01/08 10:47:13;;;;;;;66.63;46.60;;;4.30;99.90;;;;;;4914957;29;20031;-47
2022/01/08 10:49:42;;;;;;;60.67;42.53;;;4.00;99.90;;;;;;4916904;29;20543;-49
2022/01/08 10:52:13;;;;;;;62.28;42.67;;;4.10;99.90;;;;;;4898568;29;20048;-48
2022/01/08 10:54:41;;;;;;;64.13;43.53;;;4.30;99.90;;;;;;4915625;29;20032;-49
2022/01/08 10:57:08;;;;;;;62.70;43.10;;;4.40;99.90;;;;;;4915352;29;20278;-46
2022/01/08 10:59:36;;;;;;;53.50;36.55;;;4.40;99.90;;;;;;4916070;29;20090;-47
2022/01/08 11:02:03;;;;;;;48.55;37.08;;;4.40;99.90;;;;;;4914274;29;20039;-46
2022/01/08 11:04:51;;;;;;;53.53;38.92;;;4.50;99.90;;;;;;4917487;29;20465;-47
2022/01/08 11:07:32;;;;;;;39.90;27.45;;;4.40;99.90;;;;;;4914790;29;20043;-48
2022/01/08 11:10:04;;;;;;;41.40;27.90;;;4.40;99.90;;;;;;4915439;29;20044;-45
2022/01/08 11:12:36;;;;;;;37.33;25.38;;;4.40;99.90;;;;;;4912594;29;20286;-45
2022/01/08 11:17:40;;;;;;;34.92;22.30;;;4.30;99.90;;;;;;4852504;29;20054;-46
2022/01/08 11:20:13;;;;;;;29.45;22.35;;;4.20;99.90;;;;;;4915443;29;20060;-45
2022/01/08 11:22:44;;;;;;;34.17;23.67;;;4.30;99.90;;;;;;4915540;29;20083;-45
2022/01/08 11:25:12;;;;;;;33.10;23.40;;;4.40;99.90;;;;;;4915437;29;20040;-48
2022/01/08 11:27:42;;;;;;;33.22;22.95;;;4.60;99.90;;;;;;4916359;29;20072;-48
2022/01/08 11:30:14;;;;;;;28.40;19.80;;;4.70;99.90;;;;;;4915670;29;20028;-51
2022/01/08 11:32:40;;;;;;;;;;;4.70;99.90;;;;;;4916536;29;20028;-46
2022/01/08 11:35:08;;;;;;;30.58;22.63;;;4.70;99.90;;;;;;4897768;29;19962;-45
2022/01/08 11:37:35;;;;;;;32.38;22.10;;;4.80;99.90;;;;;;4915161;29;20040;-47
2022/01/08 11:40:07;;;;;;;34.75;23.88;;;4.80;99.90;;;;;;4894929;29;20048;-46
2022/01/08 11:42:35;;;;;;;34.60;25.02;;;4.50;99.90;;;;;;4849869;29;20044;-47
2022/01/08 11:45:04;;;;;;;35.10;24.27;;;4.50;99.90;;;;;;4912830;29;20043;-47
2022/01/08 11:47:30;;;;;;;33.70;25.15;;;4.50;99.90;;;;;;4913824;29;20126;-46
2022/01/08 11:49:58;;;;;;;47.67;30.40;;;4.30;99.90;;;;;;4916626;29;20123;-46
2022/01/08 11:52:25;;;;;;;38.17;28.48;;;;;;;;;;4919246;29;20032;-47
2022/01/08 11:54:55;;;;;;;45.95;29.77;;;4.60;99.90;;;;;;4919127;29;20040;-48
2022/01/08 11:57:26;;;;;;;40.28;27.88;;;4.70;99.90;;;;;;4919032;29;20032;-46
2022/01/08 11:59:57;;;;;;;44.65;32.60;;;4.50;99.90;;;;;;4919279;29;20032;-47
2022/01/08 12:02:43;;;;;;;34.85;25.25;;;4.70;99.90;;;;;;4868684;29;20040;-47
2022/01/08 12:05:13;;;;;;;45.35;30.10;;;4.70;99.90;;;;;;4918071;29;20465;-52
2022/01/08 12:07:43;;;;;;;46.53;31.10;;;4.70;99.90;;;;;;4886923;29;20119;-47
2022/01/08 12:10:15;;;;;;;37.88;27.27;;;4.60;99.90;;;;;;4918121;29;20048;-48
2022/01/08 12:12:46;;;;;;;45.92;33.00;;;4.60;99.90;;;;;;4919132;29;20059;-47
2022/01/08 12:15:13;;;;;;;42.35;29.83;;;4.60;99.90;;;;;;4919137;29;20024;-49
2022/01/08 12:17:53;;;;;;;36.63;26.20;;;4.60;99.90;;;;;;4919421;29;20074;-48
2022/01/08 12:20:38;;;;;;;34.08;25.73;;;4.70;99.90;;;;;;4920096;29;20035;-47
2022/01/08 12:23:36;;;;;;;33.67;25.20;;;4.60;99.90;;;;;;4892086;29;20472;-48
2022/01/08 12:26:09;;;;;;;39.00;28.15;;;4.60;99.90;;;;;;4879901;29;20112;-48
2022/01/08 12:28:56;;;;;;;35.53;25.02;;;4.70;99.90;;;;;;4919536;29;20032;-49
2022/01/08 12:31:23;;;;;;;36.28;23.48;;;4.60;99.90;;;;;;4871736;29;20036;-48
2022/01/08 12:34:26;;;;;;;39.38;26.65;;;4.80;99.90;;;;;;4920144;29;20540;-47
2022/01/08 12:37:00;;;;;;;28.63;22.60;;;4.90;99.90;;;;;;4918166;29;20036;-49
2022/01/08 12:39:50;;;;;;;36.28;23.85;;;4.90;99.90;;;;;;4918897;29;20032;-49
2022/01/08 12:42:19;;;;;;;29.48;21.75;;;5.00;99.90;;;;;;4911962;29;20028;-49
2022/01/08 12:45:19;;;;;;;34.67;23.73;;;5.10;99.90;;;;;;4917402;29;20123;-47
2022/01/08 12:48:04;;;;;;;31.88;23.00;;;5.20;99.90;;;;;;4902720;29;20119;-47
2022/01/08 12:50:43;;;;;;;36.85;25.75;;;5.10;99.90;;;;;;4918520;29;20060;-48
2022/01/08 12:53:17;;;;;;;32.58;25.23;;;5.00;99.90;;;;;;4901349;29;20050;-48
2022/01/08 12:55:55;;;;;;;28.42;21.83;;;4.90;99.90;;;;;;4906043;29;20037;-49
2022/01/08 12:58:32;;;;;;;31.20;23.05;;;4.90;99.90;;;;;;4919082;29;20032;-47
2022/01/08 13:01:00;;;;;;;33.53;23.70;;;5.00;99.90;;;;;;4918841;29;20441;-48
2022/01/08 13:03:29;;;;;;;30.77;22.35;;;5.00;99.90;;;;;;4919232;29;20421;-48
2022/01/08 13:05:57;;;;;;;32.95;22.27;;;4.90;99.90;;;;;;4878889;29;20052;-48
2022/01/08 13:08:25;;;;;;;36.97;24.85;;;4.80;99.90;;;;;;4919067;29;20484;-49
2022/01/08 13:11:00;;;;;;;32.45;23.35;;;4.80;99.90;;;;;;4919189;29;20055;-47
2022/01/08 13:13:48;;;;;;;32.42;22.58;;;4.60;99.90;;;;;;4918823;29;20039;-50